Time;durP1;ratioP1;P1;durP2;ratioP2;P2;SDS_P1;SDS_P2;PMS_P1;PMS_P2;Temp;Humidity;BMP_temperature;BMP_pressure;BME280_temperature;BME280_humidity;BME280_pressure;Samples;Min_cycle;Max_cycle;Signal;HPM_P1;HPM_P2
2021/05/19 00:01:30;;;;;;;5.90;4.60;;;;;;;10.77;46.45;101182.72;3535359;40;20095;-76
2021/05/19 00:03:57;;;;;;;5.90;4.72;;;;;;;10.75;46.28;101184.72;3531682;40;20332;-76
2021/05/19 00:06:26;;;;;;;6.60;5.03;;;;;;;10.74;46.44;101183.84;3537208;40;20046;-77
2021/05/19 00:08:53;;;;;;;6.82;4.75;;;;;;;10.71;46.40;101178.59;3536044;40;20091;-77
2021/05/19 00:11:21;;;;;;;5.32;4.35;;;;;;;10.69;46.72;101177.88;3527530;40;20050;-76
2021/05/19 00:13:51;;;;;;;7.00;4.70;;;;;;;10.68;46.52;101173.41;3536336;40;20065;-75
2021/05/19 00:16:19;;;;;;;8.15;4.85;;;;;;;10.66;46.76;101175.38;3536302;40;20069;-77
2021/05/19 00:18:47;;;;;;;6.18;4.50;;;;;;;10.64;46.71;101173.75;3535730;40;20053;-76
2021/05/19 00:21:15;;;;;;;6.93;4.80;;;;;;;10.64;46.72;101181.97;3531430;40;20037;-77
2021/05/19 00:23:43;;;;;;;5.93;4.55;;;;;;;10.63;47.06;101172.88;3531050;40;20047;-77
2021/05/19 00:26:11;;;;;;;6.80;5.32;;;;;;;10.62;46.83;101170.31;3527965;40;20059;-76
2021/05/19 00:28:39;;;;;;;6.50;5.28;;;;;;;10.62;46.87;101184.81;3537222;40;20355;-76
2021/05/19 00:31:09;;;;;;;6.75;5.80;;;;;;;10.62;46.70;101176.63;3536789;40;20098;-76
2021/05/19 00:33:37;;;;;;;6.50;5.20;;;;;;;10.58;46.86;101169.66;3537256;40;20072;-76
2021/05/19 00:36:05;;;;;;;6.07;4.40;;;;;;;10.57;47.00;101178.88;3527217;40;20061;-76
2021/05/19 00:38:33;;;;;;;7.15;4.97;;;;;;;10.57;47.03;101167.06;3536917;40;20363;-76
2021/05/19 00:41:02;;;;;;;7.13;5.47;;;;;;;10.57;47.28;101170.66;3523642;40;20047;-76
2021/05/19 00:43:30;;;;;;;7.90;5.72;;;;;;;10.56;47.06;101168.91;3525878;40;20161;-76
2021/05/19 00:45:57;;;;;;;6.93;5.50;;;;;;;10.55;47.19;101167.19;3535703;40;20353;-77
2021/05/19 00:48:26;;;;;;;6.53;4.78;;;;;;;10.57;47.01;101178.00;3534481;40;20058;-76
2021/05/19 00:50:54;;;;;;;6.45;4.90;;;;;;;10.54;47.22;101171.78;3535431;40;20080;-76
2021/05/19 00:53:21;;;;;;;6.35;4.85;;;;;;;10.57;47.38;101178.88;3536777;40;20327;-76
2021/05/19 00:55:49;;;;;;;6.80;4.75;;;;;;;10.57;46.98;101169.78;3527922;40;20698;-76
2021/05/19 00:58:18;;;;;;;6.65;4.80;;;;;;;10.57;47.24;101175.25;3533616;40;20063;-77
2021/05/19 01:00:46;;;;;;;7.20;5.10;;;;;;;10.57;47.30;101170.66;3517824;40;20060;-76
2021/05/19 01:03:38;;;;;;;7.22;5.35;;;;;;;10.56;47.25;101181.72;3526849;40;20053;-76
2021/05/19 01:06:12;;;;;;;7.38;5.20;;;;;;;10.52;47.00;101170.19;3533165;40;20055;-76
2021/05/19 01:11:37;;;;;;;7.85;5.10;;;;;;;10.47;47.06;101164.19;3534663;40;20320;-76
2021/05/19 01:14:07;;;;;;;6.85;4.82;;;;;;;10.46;46.91;101173.38;3535908;40;20055;-76
2021/05/19 01:16:35;;;;;;;7.47;4.93;;;;;;;10.46;47.27;101165.19;3538000;40;20054;-76
2021/05/19 01:19:06;;;;;;;6.30;4.25;;;;;;;10.45;47.38;101169.78;3536031;40;20059;-76
2021/05/19 01:21:34;;;;;;;6.18;4.93;;;;;;;10.46;47.39;101167.91;3529134;40;20058;-76
2021/05/19 01:24:05;;;;;;;6.43;5.28;;;;;;;10.46;47.26;101168.78;3537742;40;20391;-76
2021/05/19 01:26:34;;;;;;;7.05;5.40;;;;;;;10.45;47.37;101158.84;3529623;40;20160;-76
2021/05/19 01:29:02;;;;;;;7.38;5.60;;;;;;;10.46;47.21;101157.84;3541370;40;20061;-76
2021/05/19 01:31:30;;;;;;;12.10;5.95;;;;;;;10.45;47.32;101158.00;3531050;40;20101;-76
2021/05/19 01:33:58;;;;;;;6.45;5.07;;;;;;;10.45;47.42;101160.75;3529011;40;20075;-76
2021/05/19 01:36:26;;;;;;;7.15;5.25;;;;;;;10.45;47.55;101152.53;3535145;40;20157;-77
2021/05/19 01:38:54;;;;;;;6.38;4.90;;;;;;;10.45;47.48;101167.03;3534906;40;20063;-76
2021/05/19 01:41:22;;;;;;;7.38;5.10;;;;;;;10.47;47.58;101158.72;3531071;40;20308;-76
2021/05/19 01:43:51;;;;;;;6.82;5.05;;;;;;;10.47;47.34;101164.19;3527734;40;20051;-76
2021/05/19 01:46:30;;;;;;;7.03;4.80;;;;;;;10.47;47.51;101161.47;3526962;40;20343;-76
2021/05/19 01:48:58;;;;;;;7.43;5.63;;;;;;;10.48;47.32;101164.06;3537322;40;20066;-76
2021/05/19 01:51:26;;;;;;;7.63;5.00;;;;;;;10.47;47.51;101159.59;3528185;40;20276;-77
2021/05/19 01:53:54;;;;;;;7.13;5.30;;;;;;;10.49;47.62;101163.09;3531812;40;20087;-76
2021/05/19 01:56:23;;;;;;;7.60;4.85;;;;;;;10.51;47.72;101162.97;3536758;40;20677;-76
2021/05/19 01:58:54;;;;;;;7.85;5.47;;;;;;;10.49;47.54;101162.22;3536403;40;20121;-76
2021/05/19 02:01:23;;;;;;;6.22;4.68;;;;;;;10.51;47.50;101165.69;3537048;40;20074;-77
2021/05/19 02:04:04;;;;;;;6.85;5.32;;;;;;;10.56;48.16;101160.72;3528694;40;20055;-76
2021/05/19 02:06:44;;;;;;;5.75;4.40;;;;;;;10.56;48.34;101168.91;3539070;40;20054;-77
2021/05/19 02:09:12;;;;;;;6.50;4.57;;;;;;;10.53;47.61;101161.81;3533766;40;20071;-76
2021/05/19 02:11:41;;;;;;;6.28;4.88;;;;;;;10.57;47.61;101156.97;3536495;40;20067;-77
2021/05/19 02:14:10;;;;;;;6.28;4.75;;;;;;;10.57;47.50;101165.19;3528321;40;20055;-76
2021/05/19 02:16:38;;;;;;;5.80;4.28;;;;;;;10.59;47.54;101157.75;3536279;40;20320;-77
2021/05/19 02:19:09;;;;;;;5.88;4.20;;;;;;;10.62;47.84;101165.66;3535067;40;20062;-76
2021/05/19 02:21:40;;;;;;;6.82;4.63;;;;;;;10.62;47.77;101168.41;3529771;40;20156;-76
2021/05/19 02:24:11;;;;;;;6.75;4.40;;;;;;;10.61;47.79;101163.97;3535833;40;20042;-76
2021/05/19 02:26:42;;;;;;;5.85;3.95;;;;;;;10.65;47.61;101164.56;3536521;40;20058;-77
2021/05/19 02:29:14;;;;;;;6.70;4.80;;;;;;;10.65;47.80;101161.81;3529252;40;20142;-76
2021/05/19 02:31:43;;;;;;;6.57;4.97;;;;;;;10.64;47.63;101166.44;3533436;40;20456;-77
2021/05/19 02:34:12;;;;;;;7.03;5.20;;;;;;;10.63;47.58;101161.94;3527860;40;20054;-76
2021/05/19 02:36:42;;;;;;;7.65;4.60;;;;;;;10.62;47.33;101164.84;3534367;40;20082;-76
2021/05/19 02:39:12;;;;;;;6.20;4.80;;;;;;;10.63;47.43;101166.53;3527942;40;20123;-76
2021/05/19 02:41:45;;;;;;;5.63;4.45;;;;;;;10.60;47.52;101164.97;3539150;40;20411;-76
2021/05/19 02:44:15;;;;;;;6.18;4.68;;;;;;;10.59;47.52;101174.16;3535556;40;20081;-77
2021/05/19 02:46:43;;;;;;;6.22;4.53;;;;;;;10.60;47.56;101173.16;3520736;40;20054;-77
2021/05/19 02:49:11;;;;;;;6.13;4.13;;;;;;;10.59;47.65;101170.53;3537658;40;20054;-76
2021/05/19 02:51:38;;;;;;;5.22;4.15;;;;;;;10.59;47.54;101170.53;3537764;40;20483;-81
2021/05/19 02:54:08;;;;;;;5.97;4.20;;;;;;;10.58;47.50;101166.94;3530007;40;20526;-77
2021/05/19 02:56:36;;;;;;;6.30;4.55;;;;;;;10.57;47.35;101178.88;3537562;40;20526;-76
2021/05/19 02:59:05;;;;;;;6.85;4.47;;;;;;;10.57;47.28;101178.88;3539411;40;20393;-77
2021/05/19 03:01:35;;;;;;;6.20;4.80;;;;;;;10.54;47.36;101177.25;3540620;40;20043;-78
2021/05/19 03:04:04;;;;;;;6.25;4.00;;;;;;;10.55;47.39;101180.84;3536138;40;20070;-76
2021/05/19 03:06:32;;;;;;;6.47;4.18;;;;;;;10.54;47.13;101179.09;3537527;40;20171;-77
2021/05/19 03:09:00;;;;;;;6.75;4.47;;;;;;;10.53;47.10;101177.41;3529990;40;20047;-76
2021/05/19 03:11:28;;;;;;;6.05;4.35;;;;;;;10.52;47.37;101181.13;3537015;40;20058;-76
2021/05/19 03:13:55;;;;;;;6.15;4.38;;;;;;;10.51;47.16;101182.13;3535569;40;20071;-76
2021/05/19 03:16:26;;;;;;;6.78;4.05;;;;;;;10.52;47.44;101187.47;3540415;40;20067;-76
2021/05/19 03:18:55;;;;;;;5.67;4.27;;;;;;;10.49;47.40;101189.56;3528855;40;20065;-77
2021/05/19 03:21:24;;;;;;;6.05;4.05;;;;;;;10.52;47.44;101192.94;3537736;40;20348;-76
2021/05/19 03:23:52;;;;;;;5.57;4.45;;;;;;;10.51;47.34;101199.41;3522064;40;20107;-76
2021/05/19 03:26:20;;;;;;;5.45;4.18;;;;;;;10.52;47.44;101197.53;3537095;40;20064;-77
2021/05/19 03:28:49;;;;;;;5.00;4.00;;;;;;;10.52;47.41;101197.53;3536513;40;20140;-76
2021/05/19 03:31:17;;;;;;;5.50;4.10;;;;;;;10.52;47.47;101189.31;3537467;40;20040;-76
2021/05/19 03:33:46;;;;;;;6.18;4.72;;;;;;;10.55;47.60;101194.53;3537311;40;20394;-76
2021/05/19 03:36:14;;;;;;;5.55;3.90;;;;;;;10.54;47.55;101190.91;3537320;40;20137;-76
2021/05/19 03:38:41;;;;;;;6.50;4.82;;;;;;;10.57;47.69;101197.16;3536379;40;20308;-77
2021/05/19 03:41:09;;;;;;;5.60;4.40;;;;;;;10.57;47.38;101191.69;3536982;40;20065;-76
2021/05/19 03:43:37;;;;;;;5.80;4.68;;;;;;;10.58;47.47;101193.41;3536970;40;20054;-77
2021/05/19 03:46:06;;;;;;;5.95;4.43;;;;;;;10.59;47.83;101196.03;3536795;40;20055;-76
2021/05/19 03:48:34;;;;;;;6.35;4.47;;;;;;;10.58;47.61;101205.22;3536522;40;20055;-76
2021/05/19 03:51:04;;;;;;;7.25;5.30;;;;;;;10.59;47.85;101204.25;3525491;40;20066;-76
2021/05/19 03:53:32;;;;;;;7.47;5.75;;;;;;;10.57;47.73;101203.50;3532074;40;20316;-76
2021/05/19 03:56:00;;;;;;;5.60;4.63;;;;;;;10.57;47.74;101203.50;3536979;40;20095;-76
2021/05/19 03:58:29;;;;;;;6.47;4.78;;;;;;;10.58;47.86;101209.84;3536778;40;20035;-77
2021/05/19 04:00:57;;;;;;;6.82;5.15;;;;;;;10.58;47.86;101204.38;3535553;40;20087;-76
2021/05/19 04:03:25;;;;;;;7.45;5.30;;;;;;;10.58;47.89;101207.09;3537445;40;20051;-76
2021/05/19 04:05:54;;;;;;;7.07;4.85;;;;;;;10.59;47.86;101208.84;3537505;40;20125;-77
2021/05/19 04:08:33;;;;;;;6.85;5.30;;;;;;;10.63;48.37;101205.72;3536877;40;20055;-76
2021/05/19 04:11:02;;;;;;;6.88;5.22;;;;;;;10.61;47.95;101207.72;3536694;40;20043;-76
2021/05/19 04:13:30;;;;;;;6.13;4.78;;;;;;;10.61;47.92;101204.13;3536053;40;20054;-76
2021/05/19 04:15:58;;;;;;;7.40;5.25;;;;;;;10.62;48.04;101211.34;3529954;40;20046;-76
2021/05/19 04:18:46;;;;;;;6.78;4.68;;;;;;;10.62;47.76;101208.59;3535830;40;20054;-77
2021/05/19 04:21:34;;;;;;;6.80;4.90;;;;;;;10.62;47.89;101219.56;3533056;40;20063;-76
2021/05/19 04:24:23;;;;;;;6.47;5.00;;;;;;;10.64;47.64;101220.28;3536737;40;20067;-76
2021/05/19 04:27:10;;;;;;;5.50;4.45;;;;;;;10.61;47.95;101218.69;3537708;40;20054;-77
2021/05/19 04:29:58;;;;;;;6.32;5.00;;;;;;;10.62;47.48;101217.66;3534454;40;20050;-76
2021/05/19 04:32:45;;;;;;;6.57;4.95;;;;;;;10.63;47.83;101227.59;3535934;40;20065;-77
2021/05/19 04:35:21;;;;;;;7.10;5.55;;;;;;;10.66;47.93;101232.84;3530503;40;20133;-77
2021/05/19 04:38:08;;;;;;;7.53;5.60;;;;;;;10.68;48.06;101233.59;3538713;40;20376;-77
2021/05/19 04:40:57;;;;;;;6.53;4.88;;;;;;;10.72;48.29;101234.19;3526967;40;20055;-77
2021/05/19 04:43:25;;;;;;;7.05;5.50;;;;;;;10.74;48.05;101230.34;3537382;40;20058;-76
2021/05/19 04:45:53;;;;;;;7.57;5.70;;;;;;;10.78;48.03;101231.00;3536107;40;20054;-77
2021/05/19 04:48:21;;;;;;;8.05;5.80;;;;;;;10.80;47.95;101232.59;3527963;40;20071;-77
2021/05/19 04:50:50;;;;;;;7.55;5.47;;;;;;;10.83;48.25;101240.59;3540144;40;20038;-76
2021/05/19 04:53:27;;;;;;;6.60;4.95;;;;;;;10.86;48.08;101242.22;3529913;40;20055;-77
2021/05/19 04:56:15;;;;;;;6.35;4.65;;;;;;;10.89;47.81;101242.81;3536544;40;20066;-77
2021/05/19 04:58:48;;;;;;;7.90;5.00;;;;;;;10.93;48.27;101246.19;3522751;40;20061;-77
2021/05/19 05:01:16;;;;;;;6.20;4.70;;;;;;;10.97;48.17;101235.84;3540702;40;20050;-77
2021/05/19 05:03:45;;;;;;;7.50;5.18;;;;;;;11.00;47.81;101243.81;3536219;40;20053;-76
2021/05/19 05:06:13;;;;;;;8.60;5.88;;;;;;;11.03;48.01;101243.56;3537590;40;20069;-76
2021/05/19 05:08:41;;;;;;;9.75;5.32;;;;;;;11.05;47.74;101242.44;3531481;40;20067;-77
2021/05/19 05:11:31;;;;;;;7.20;4.93;;;;;;;11.11;47.94;101246.56;3535832;40;20047;-76
2021/05/19 05:13:59;;;;;;;6.80;4.78;;;;;;;11.12;48.04;101246.41;3538540;40;20346;-77
2021/05/19 05:16:27;;;;;;;7.18;4.60;;;;;;;11.18;47.82;101239.56;3538879;40;20047;-77
2021/05/19 05:18:55;;;;;;;6.07;4.72;;;;;;;11.20;47.76;101249.38;3540283;40;20141;-77
2021/05/19 05:21:24;;;;;;;6.80;4.65;;;;;;;11.23;47.66;101246.38;3539429;40;20053;-77
2021/05/19 05:24:12;;;;;;;6.15;4.93;;;;;;;11.27;47.77;101252.50;3542439;40;20117;-77
2021/05/19 05:26:41;;;;;;;6.53;4.38;;;;;;;11.31;47.56;101245.75;3536684;40;20059;-77
2021/05/19 05:29:09;;;;;;;7.75;4.53;;;;;;;11.34;47.43;101250.13;3529951;40;20055;-77
2021/05/19 05:31:37;;;;;;;5.82;4.07;;;;;;;11.37;47.71;101249.84;3539059;40;20391;-77
2021/05/19 05:34:05;;;;;;;6.63;4.82;;;;;;;11.40;47.37;101255.06;3539471;40;20110;-77
2021/05/19 05:36:33;;;;;;;7.97;5.13;;;;;;;11.42;47.45;101253.94;3539242;40;20051;-78
2021/05/19 05:39:01;;;;;;;6.25;4.22;;;;;;;11.46;47.65;101255.41;3530383;40;20046;-77
2021/05/19 05:41:28;;;;;;;7.53;4.47;;;;;;;11.48;47.52;101250.69;3529170;40;20141;-77
2021/05/19 05:43:57;;;;;;;6.43;4.40;;;;;;;11.53;47.43;101248.41;3529972;40;20051;-77
2021/05/19 05:46:25;;;;;;;6.18;4.75;;;;;;;11.56;47.33;101244.56;3536982;40;20062;-78
2021/05/19 05:48:53;;;;;;;6.30;4.13;;;;;;;11.59;47.43;101247.06;3539082;40;20082;-77
2021/05/19 05:51:21;;;;;;;7.20;4.50;;;;;;;11.63;47.29;101245.78;3517425;40;20062;-77
2021/05/19 05:53:49;;;;;;;6.50;4.28;;;;;;;11.69;47.52;101252.63;3514727;40;20056;-77
2021/05/19 05:56:17;;;;;;;6.97;4.53;;;;;;;11.76;47.95;101253.84;3501672;40;20416;-77
2021/05/19 05:58:45;;;;;;;8.15;4.60;;;;;;;11.87;47.94;101259.25;3518651;40;20055;-77
2021/05/19 06:01:14;;;;;;;7.53;4.60;;;;;;;12.02;48.28;101253.34;3513594;40;20067;-75
2021/05/19 06:03:42;;;;;;;5.97;4.05;;;;;;;12.20;48.73;101261.00;3512047;40;20063;-74
2021/05/19 06:06:10;;;;;;;8.02;4.63;;;;;;;12.40;48.58;101265.63;3517257;40;20118;-77
2021/05/19 06:08:37;;;;;;;6.60;4.25;;;;;;;12.67;49.02;101262.34;3516537;40;20420;-75
2021/05/19 06:11:07;;;;;;;5.82;4.30;;;;;;;13.05;49.38;101262.53;3515852;40;20036;-76
2021/05/19 06:13:35;;;;;;;6.32;4.07;;;;;;;13.47;49.38;101255.00;3515886;40;20354;-76
2021/05/19 06:16:03;;;;;;;6.53;4.25;;;;;;;13.87;48.14;101263.16;3513506;40;20047;-77
2021/05/19 06:18:32;;;;;;;5.65;3.92;;;;;;;14.22;47.25;101256.22;3517103;40;20052;-77
2021/05/19 06:21:00;;;;;;;8.00;3.58;;;;;;;14.52;46.79;101263.41;3511235;40;20385;-79
2021/05/19 06:23:28;;;;;;;5.32;3.65;;;;;;;14.82;45.89;101256.84;3537856;40;20187;-78
2021/05/19 06:25:57;;;;;;;6.80;3.30;;;;;;;15.06;45.10;101263.53;3539830;40;20100;-78
2021/05/19 06:28:25;;;;;;;6.00;3.40;;;;;;;15.35;45.63;101260.63;3526374;40;20091;-78
2021/05/19 06:30:54;;;;;;;5.60;3.25;;;;;;;15.72;45.79;101265.22;3538205;40;20062;-79
2021/05/19 06:33:22;;;;;;;5.63;3.10;;;;;;;16.09;44.78;101270.59;3530639;40;20031;-80
2021/05/19 06:35:51;;;;;;;5.55;3.05;;;;;;;16.51;44.82;101277.19;3538682;40;20081;-80
2021/05/19 06:38:19;;;;;;;6.00;3.00;;;;;;;16.97;44.96;101269.53;3541053;40;20057;-82
2021/05/19 06:40:47;;;;;;;6.57;3.63;;;;;;;17.55;44.08;101279.84;3541701;40;20063;-84
2021/05/19 06:43:15;;;;;;;4.68;3.05;;;;;;;18.14;44.04;101286.25;3541587;40;20039;-81
2021/05/19 06:45:44;;;;;;;6.85;3.13;;;;;;;18.65;42.17;101277.59;3540513;40;20051;-78
2021/05/19 06:48:13;;;;;;;8.80;3.35;;;;;;;19.03;40.62;101270.41;3530966;40;20034;-80
2021/05/19 06:50:41;;;;;;;6.43;3.20;;;;;;;19.34;39.52;101275.19;3524015;40;20388;-80
2021/05/19 06:53:09;;;;;;;6.00;3.17;;;;;;;19.52;38.89;101268.34;3531978;40;20034;-80
2021/05/19 06:55:38;;;;;;;7.30;3.45;;;;;;;19.62;38.33;101268.13;3537578;40;20031;-81
2021/05/19 06:58:07;;;;;;;6.45;2.90;;;;;;;19.70;38.71;101267.22;3531296;40;20321;-79
2021/05/19 07:00:35;;;;;;;6.63;2.70;;;;;;;19.75;38.38;101278.66;3532346;40;20312;-81
2021/05/19 07:03:03;;;;;;;6.18;2.40;;;;;;;19.74;37.42;101269.47;3529957;40;20046;-80
2021/05/19 07:05:30;;;;;;;5.88;2.78;;;;;;;19.74;36.97;101280.56;3530396;40;20035;-81
2021/05/19 07:07:58;;;;;;;6.57;2.88;;;;;;;19.72;36.48;101277.09;3531060;40;20027;-82
2021/05/19 07:10:27;;;;;;;5.32;2.83;;;;;;;19.68;36.26;101285.97;3531087;40;20038;-81
2021/05/19 07:12:55;;;;;;;6.20;2.88;;;;;;;19.58;36.00;101288.97;3531127;40;20051;-78
2021/05/19 07:15:23;;;;;;;4.93;2.67;;;;;;;19.47;35.26;101284.66;3539806;40;20677;-78
2021/05/19 07:17:51;;;;;;;4.15;2.60;;;;;;;19.38;35.69;101282.94;3540680;40;20043;-77
2021/05/19 07:20:18;;;;;;;5.22;2.60;;;;;;;19.28;35.75;101282.28;3540885;40;20384;-78
2021/05/19 07:22:46;;;;;;;6.65;3.10;;;;;;;19.20;35.73;101272.09;3540346;40;20038;-78
2021/05/19 07:25:14;;;;;;;4.53;2.55;;;;;;;19.14;36.07;101271.94;3540859;40;20042;-77
2021/05/19 07:27:42;;;;;;;5.80;2.50;;;;;;;19.09;35.28;101283.59;3541298;40;20031;-78
2021/05/19 07:30:12;;;;;;;4.70;2.28;;;;;;;19.00;35.35;101281.88;3539847;40;20068;-78
2021/05/19 07:32:40;;;;;;;5.07;2.42;;;;;;;18.88;35.38;101274.97;3540054;40;20047;-78
2021/05/19 07:35:09;;;;;;;3.55;2.33;;;;;;;18.77;34.99;101287.25;3540162;40;20292;-77
2021/05/19 07:37:37;;;;;;;5.35;2.17;;;;;;;18.65;35.53;101279.50;3541038;40;20035;-78
2021/05/19 07:40:06;;;;;;;3.60;2.08;;;;;;;18.56;35.04;101277.75;3540101;40;20031;-78
2021/05/19 07:42:33;;;;;;;3.97;1.83;;;;;;;18.43;34.95;101281.06;3540050;40;20645;-79
2021/05/19 07:45:02;;;;;;;6.15;2.22;;;;;;;18.36;35.44;101282.81;3539805;40;20031;-78
2021/05/19 07:47:29;;;;;;;4.25;1.95;;;;;;;18.26;35.14;101282.13;3540099;40;20384;-79
2021/05/19 07:49:56;;;;;;;5.57;2.10;;;;;;;18.20;35.90;101289.19;3541109;40;20379;-78
2021/05/19 07:52:22;;;;;;;4.30;2.20;;;;;;;18.14;35.33;101295.41;3541248;40;20039;-81
2021/05/19 07:54:49;;;;;;;7.07;2.33;;;;;;;18.06;35.16;101287.97;3539560;40;20031;-80
2021/05/19 07:57:17;;;;;;;6.63;2.20;;;;;;;18.01;35.44;101286.72;3540788;40;20125;-81
2021/05/19 07:59:45;;;;;;;3.65;1.70;;;;;;;17.91;35.26;101297.94;3539794;40;20034;-80
2021/05/19 08:02:15;;;;;;;5.10;1.83;;;;;;;17.81;35.21;101294.47;3539720;40;20038;-81
2021/05/19 08:04:44;;;;;;;4.03;1.52;;;;;;;17.69;35.71;101293.06;3540387;40;20031;-80
2021/05/19 08:07:11;;;;;;;3.45;1.33;;;;;;;17.58;35.12;101285.94;3540710;40;20066;-80
2021/05/19 08:09:42;;;;;;;2.97;1.40;;;;;;;17.50;35.37;101285.03;3539645;40;20031;-81
2021/05/19 08:12:08;;;;;;;4.90;1.40;;;;;;;17.44;35.61;101289.34;3539750;40;20038;-81
2021/05/19 08:14:35;;;;;;;3.85;1.65;;;;;;;17.37;36.00;101291.03;3539787;40;20150;-81
2021/05/19 08:17:01;;;;;;;2.88;1.45;;;;;;;17.31;35.33;101291.69;3539877;40;20038;-80
2021/05/19 08:19:29;;;;;;;3.63;1.50;;;;;;;17.27;35.88;101293.06;3540685;40;20388;-80
2021/05/19 08:21:57;;;;;;;2.97;1.40;;;;;;;17.19;35.98;101284.69;3539002;40;20035;-81
2021/05/19 08:24:24;;;;;;;4.13;1.48;;;;;;;17.11;35.44;101277.25;3530648;40;20031;-80
2021/05/19 08:26:53;;;;;;;3.78;1.50;;;;;;;17.07;35.38;101286.00;3513410;40;20289;-81
2021/05/19 08:29:21;;;;;;;3.85;1.30;;;;;;;16.97;35.86;101280.59;3529882;40;20396;-81
2021/05/19 08:31:49;;;;;;;4.65;1.42;;;;;;;16.91;35.40;101286.78;3521822;40;20347;-80
2021/05/19 08:34:17;;;;;;;3.20;1.23;;;;;;;16.82;35.53;101285.00;3521776;40;20079;-81
2021/05/19 08:36:45;;;;;;;4.50;1.10;;;;;;;16.76;35.32;101280.13;3521524;40;20601;-81
2021/05/19 08:39:21;;;;;;;2.80;1.00;;;;;;;16.65;34.89;101283.16;3521607;40;20031;-80
2021/05/19 08:41:50;;;;;;;2.13;1.10;;;;;;;16.52;35.79;101287.22;3521882;40;20140;-80
2021/05/19 08:44:19;;;;;;;4.05;1.40;;;;;;;16.42;35.78;101291.06;3530413;40;20031;-80
2021/05/19 08:46:49;;;;;;;2.53;1.10;;;;;;;16.31;35.51;101288.53;3530016;40;20027;-80
2021/05/19 08:49:18;;;;;;;4.63;1.10;;;;;;;16.19;35.96;101291.56;3529569;40;20028;-80
2021/05/19 08:51:46;;;;;;;2.88;1.20;;;;;;;16.13;35.95;101285.81;3530744;40;20111;-80
2021/05/19 08:54:16;;;;;;;2.97;1.00;;;;;;;16.00;35.75;101286.19;3530376;40;20079;-80
2021/05/19 08:56:46;;;;;;;3.08;1.23;;;;;;;15.92;35.96;101283.34;3521695;40;20512;-80
2021/05/19 08:59:14;;;;;;;4.78;1.52;;;;;;;15.86;36.07;101275.72;3529377;40;20118;-81
2021/05/19 09:01:44;;;;;;;3.17;1.15;;;;;;;15.81;36.50;101284.44;3521586;40;20037;-80
2021/05/19 09:04:16;;;;;;;2.80;1.10;;;;;;;15.77;36.29;101285.78;3521227;40;20059;-79
2021/05/19 09:06:45;;;;;;;2.90;0.90;;;;;;;15.76;36.38;101280.44;3530595;40;20036;-80
2021/05/19 09:09:25;;;;;;;2.65;1.00;;;;;;;15.72;36.46;101268.81;3521555;40;20118;-80
2021/05/19 09:11:59;;;;;;;1.67;0.95;;;;;;;15.69;36.06;101277.44;3530693;40;20027;-80
2021/05/19 09:14:30;;;;;;;2.72;1.10;;;;;;;15.65;36.62;101273.25;3531400;40;20293;-80
2021/05/19 09:17:20;;;;;;;3.05;1.23;;;;;;;15.64;36.92;101267.91;3522442;40;20047;-77
2021/05/19 09:19:49;;;;;;;3.50;0.95;;;;;;;15.59;37.07;101262.81;3522326;40;20040;-78
2021/05/19 09:22:19;;;;;;;2.78;0.90;;;;;;;15.62;37.03;101270.78;3540285;40;20381;-80
2021/05/19 09:24:48;;;;;;;3.05;1.27;;;;;;;15.65;37.18;101258.56;3539659;40;20054;-80
2021/05/19 09:27:16;;;;;;;3.10;1.00;;;;;;;15.63;36.52;101252.34;3540190;40;20040;-80
2021/05/19 09:29:47;;;;;;;3.80;1.35;;;;;;;15.68;36.85;101261.03;3531359;40;20035;-81
2021/05/19 09:32:17;;;;;;;1.92;0.90;;;;;;;15.68;36.82;101261.03;3540002;40;20103;-80
2021/05/19 09:34:46;;;;;;;2.20;0.77;;;;;;;15.70;37.27;101254.34;3540928;40;20042;-81
2021/05/19 09:37:23;;;;;;;2.50;1.10;;;;;;;15.80;36.64;101260.66;3532787;40;20528;-81
2021/05/19 09:39:56;;;;;;;3.90;1.08;;;;;;;15.82;36.50;101255.84;3532842;40;20071;-80
2021/05/19 09:42:25;;;;;;;1.98;0.90;;;;;;;15.85;37.02;101253.78;3524864;40;20038;-80
2021/05/19 09:44:55;;;;;;;3.42;0.93;;;;;;;15.93;36.83;101249.22;3541580;40;20038;-81
2021/05/19 09:47:37;;;;;;;3.53;1.10;;;;;;;16.04;36.49;101249.00;3532643;40;20415;-81
2021/05/19 09:50:07;;;;;;;2.97;1.25;;;;;;;16.05;36.82;101252.63;3530914;40;20114;-82
2021/05/19 09:52:36;;;;;;;3.33;1.02;;;;;;;16.12;36.26;101253.72;3532024;40;20382;-80
2021/05/19 09:55:08;;;;;;;4.00;1.00;;;;;;;16.16;36.54;101250.47;3522651;40;20144;-81
2021/05/19 09:57:49;;;;;;;3.67;1.45;;;;;;;16.18;36.23;101253.94;3532442;40;22127;-81
2021/05/19 10:00:23;;;;;;;4.70;1.20;;;;;;;16.25;36.10;101250.53;3541149;40;20299;-80
2021/05/19 10:02:52;;;;;;;3.53;1.10;;;;;;;16.23;36.06;101242.41;3541415;40;20067;-79
2021/05/19 10:05:23;;;;;;;3.03;0.90;;;;;;;16.25;36.46;101239.50;3540830;40;20097;-81
2021/05/19 10:07:54;;;;;;;2.40;0.90;;;;;;;16.31;36.37;101241.59;3524415;40;20031;-81
2021/05/19 10:10:23;;;;;;;2.70;1.00;;;;;;;16.38;36.55;101242.72;3541562;40;20035;-81
2021/05/19 10:12:52;;;;;;;3.03;0.90;;;;;;;16.43;36.34;101241.19;3522864;40;20070;-81
2021/05/19 10:15:23;;;;;;;2.88;1.00;;;;;;;16.51;36.46;101230.25;3531924;40;20051;-81
2021/05/19 10:17:56;;;;;;;3.42;0.98;;;;;;;16.59;36.24;101234.94;3531938;40;20399;-80
2021/05/19 10:20:27;;;;;;;3.70;1.17;;;;;;;16.67;35.95;101236.91;3532050;40;20055;-80
2021/05/19 10:22:54;;;;;;;2.00;0.82;;;;;;;;;;3523027;40;20035;-80
2021/05/19 10:25:36;;;;;;;3.42;1.00;;;;;;;16.83;35.92;101232.34;3522790;40;20048;-81
2021/05/19 10:28:05;;;;;;;2.22;0.90;;;;;;;16.89;36.36;101226.16;3522509;40;20304;-78
2021/05/19 10:30:39;;;;;;;4.43;1.10;;;;;;;17.00;35.99;101227.75;3531443;40;20425;-78
2021/05/19 10:33:28;;;;;;;3.80;0.75;;;;;;;17.07;35.50;101222.44;3530691;40;20035;-78
2021/05/19 10:35:57;;;;;;;3.15;1.00;;;;;;;17.13;35.48;101217.09;3530827;40;20038;-78
2021/05/19 10:38:27;;;;;;;2.83;1.15;;;;;;;17.19;35.56;101210.06;3522526;40;20044;-78
2021/05/19 10:40:58;;;;;;;3.63;1.10;;;;;;;17.26;34.67;101205.59;3531512;40;20060;-78
2021/05/19 10:43:47;;;;;;;3.38;1.00;;;;;;;17.34;34.42;101204.78;3530992;40;20032;-79
2021/05/19 10:46:35;;;;;;;2.38;0.90;;;;;;;17.32;34.43;101199.41;3531590;40;20038;-81
2021/05/19 10:49:03;;;;;;;2.67;0.82;;;;;;;17.34;34.65;101204.78;3530883;40;20559;-82
2021/05/19 10:51:37;;;;;;;2.92;1.20;;;;;;;17.37;34.04;101202.56;3515412;40;20032;-81
2021/05/19 10:57:11;;;;;;;2.95;0.90;;;;;;;17.36;34.22;101199.94;3522656;40;20042;-82
2021/05/19 11:00:10;;;;;;;2.65;0.90;;;;;;;17.31;33.68;101194.91;3522627;40;20106;-81
2021/05/19 11:03:13;;;;;;;3.83;0.80;;;;;;;17.29;33.98;101195.06;3522114;40;20035;-81
2021/05/19 11:06:02;;;;;;;1.50;0.80;;;;;;;17.25;33.77;101199.19;3531856;40;20038;-81
2021/05/19 11:08:34;;;;;;;3.33;1.10;;;;;;;17.25;34.39;101188.13;3519178;40;20031;-80
2021/05/19 11:11:27;;;;;;;2.67;1.00;;;;;;;17.27;34.13;101183.34;3531871;40;20122;-80
2021/05/19 11:14:09;;;;;;;4.45;0.98;;;;;;;17.28;34.44;101181.44;3531693;40;20068;-80
2021/05/19 11:16:47;;;;;;;1.92;0.80;;;;;;;17.32;33.55;101188.34;3530211;40;20031;-80
2021/05/19 11:19:29;;;;;;;2.17;0.73;;;;;;;17.38;33.64;101184.91;3522862;40;20404;-81
2021/05/19 11:21:59;;;;;;;4.55;1.30;;;;;;;17.37;33.84;101191.50;3530280;40;20039;-80
2021/05/19 11:24:27;;;;;;;2.72;0.90;;;;;;;17.40;33.93;101191.13;3531557;40;20039;-80
2021/05/19 11:26:55;;;;;;;2.65;0.88;;;;;;;17.43;33.62;101196.34;3522775;40;20042;-80
2021/05/19 11:29:24;;;;;;;2.03;0.75;;;;;;;17.46;33.76;101184.91;3531254;40;20393;-80
2021/05/19 11:31:57;;;;;;;1.65;0.80;;;;;;;17.46;33.57;101184.91;3531316;40;20054;-80
2021/05/19 11:34:28;;;;;;;3.38;0.98;;;;;;;17.49;32.89;101190.13;3531101;40;20031;-79
2021/05/19 11:36:58;;;;;;;2.65;0.80;;;;;;;17.49;32.86;101200.31;3530860;40;20035;-80
2021/05/19 11:39:32;;;;;;;1.42;0.80;;;;;;;17.46;33.23;101198.75;3531065;40;20046;-80
2021/05/19 11:42:22;;;;;;;2.42;0.80;;;;;;;17.39;33.15;101208.75;3522025;40;20038;-79
2021/05/19 11:44:57;;;;;;;2.10;0.60;;;;;;;17.33;32.55;101203.91;3531227;40;20038;-79
2021/05/19 11:47:37;;;;;;;1.80;0.80;;;;;;;17.28;32.13;101198.91;3522507;40;20538;-80
2021/05/19 11:50:10;;;;;;;1.20;0.60;;;;;;;17.19;32.70;101194.34;3522323;40;20036;-80